createdAt,value
2019-06-27T00:02:19.701Z,59.72
2019-06-27T00:04:51.561Z,60.08
2019-06-27T00:07:23.519Z,59.96
2019-06-27T00:09:55.425Z,60.12
2019-06-27T00:12:26.637Z,60.53
2019-06-27T00:14:58.437Z,61.00
2019-06-27T00:17:30.407Z,61.50
2019-06-27T00:20:01.603Z,61.93
2019-06-27T00:22:32.824Z,62.34
2019-06-27T00:25:04.905Z,62.82
2019-06-27T00:27:36.793Z,62.97
2019-06-27T00:30:09.433Z,63.11
2019-06-27T00:32:40.747Z,62.90
2019-06-27T00:35:12.822Z,62.51
2019-06-27T00:37:44.697Z,62.84
2019-06-27T00:40:17.637Z,62.89
2019-06-27T00:42:48.865Z,63.17
2019-06-27T00:45:21.083Z,63.86
2019-06-27T00:47:54.005Z,63.45
2019-06-27T00:50:25.267Z,63.22
2019-06-27T00:52:57.089Z,63.04
2019-06-27T00:55:28.965Z,63.23
2019-06-27T00:58:01.008Z,63.20
2019-06-27T01:00:32.997Z,63.42
2019-06-27T01:03:08.021Z,63.30
2019-06-27T01:05:39.975Z,63.68
2019-06-27T01:08:11.193Z,64.29
2019-06-27T01:10:42.975Z,64.29
2019-06-27T01:13:14.901Z,64.24
2019-06-27T01:15:46.130Z,64.81
2019-06-27T01:18:18.021Z,64.25
2019-06-27T01:20:49.838Z,64.39
2019-06-27T01:23:21.723Z,64.77
2019-06-27T01:25:53.555Z,65.24
2019-06-27T01:28:25.609Z,65.20
2019-06-27T01:30:57.476Z,65.19
2019-06-27T01:33:29.472Z,65.29
2019-06-27T01:36:00.670Z,65.20
2019-06-27T01:38:32.625Z,65.59
2019-06-27T01:41:04.580Z,66.09
2019-06-27T01:43:36.557Z,66.63
2019-06-27T01:46:08.500Z,67.14
2019-06-27T01:48:40.373Z,67.47
2019-06-27T01:51:12.361Z,67.76
2019-06-27T01:53:44.561Z,68.05
2019-06-27T01:56:16.840Z,67.77
2019-06-27T01:58:56.540Z,67.61
2019-06-27T02:01:28.393Z,67.98
2019-06-27T02:04:00.525Z,67.84
2019-06-27T02:06:34.032Z,68.28
2019-06-27T02:09:07.752Z,68.32
2019-06-27T02:11:39.196Z,68.14
2019-06-27T02:14:11.001Z,68.65
2019-06-27T02:16:49.747Z,69.01
2019-06-27T02:19:21.012Z,69.60
2019-06-27T02:21:52.985Z,69.65
2019-06-27T02:24:24.972Z,70.14
2019-06-27T02:26:57.167Z,70.22
2019-06-27T02:29:29.281Z,70.72
2019-06-27T02:32:01.330Z,71.04
2019-06-27T02:34:36.027Z,71.09
2019-06-27T02:37:09.531Z,71.85
2019-06-27T02:39:41.602Z,72.13
2019-06-27T02:42:13.545Z,72.25
2019-06-27T02:44:46.856Z,72.86
2019-06-27T02:47:18.349Z,73.26
2019-06-27T02:49:54.184Z,73.45
2019-06-27T02:52:29.615Z,73.90
2019-06-27T02:55:07.673Z,74.06
2019-06-27T02:57:43.257Z,74.83
2019-06-27T03:00:16.622Z,74.84
2019-06-27T03:02:55.789Z,75.14
2019-06-27T03:05:32.733Z,75.43
2019-06-27T03:08:09.219Z,75.43
2019-06-27T03:10:41.117Z,75.67
2019-06-27T03:13:14.321Z,75.54
2019-06-27T03:15:49.597Z,75.81
2019-06-27T03:18:20.869Z,75.99
2019-06-27T03:20:52.807Z,76.04
2019-06-27T03:23:24.840Z,76.33
2019-06-27T03:25:56.697Z,76.46
2019-06-27T03:28:49.761Z,76.35
2019-06-27T03:31:02.485Z,76.24
2019-06-27T03:33:36.385Z,76.59
2019-06-27T03:36:09.446Z,76.60
2019-06-27T03:38:44.220Z,76.63
2019-06-27T03:41:15.601Z,76.37
2019-06-27T03:43:47.650Z,76.70
2019-06-27T03:46:19.652Z,76.40
2019-06-27T03:48:51.591Z,75.79
2019-06-27T03:51:23.435Z,75.61
2019-06-27T03:53:55.399Z,75.66
2019-06-27T03:56:26.648Z,75.53
2019-06-27T03:59:11.288Z,75.36
2019-06-27T04:01:31.451Z,74.34
2019-06-27T04:04:03.674Z,74.07
2019-06-27T04:06:35.714Z,73.84
2019-06-27T04:09:07.323Z,72.93
2019-06-27T04:11:39.464Z,72.60
2019-06-27T04:14:11.487Z,72.60
2019-06-27T04:16:48.610Z,73.01
2019-06-27T04:19:17.230Z,72.51
2019-06-27T04:21:49.297Z,71.71
2019-06-27T04:24:22.325Z,70.87
2019-06-27T04:26:54.248Z,70.49
2019-06-27T04:29:33.643Z,71.10
2019-06-27T04:32:00.040Z,70.09
2019-06-27T04:34:32.072Z,70.00
2019-06-27T04:37:04.125Z,70.14
2019-06-27T04:39:35.439Z,69.95
2019-06-27T04:42:39.163Z,69.78
2019-06-27T04:45:11.251Z,68.86
2019-06-27T04:47:42.795Z,68.94
2019-06-27T04:50:15.026Z,69.44
2019-06-27T04:52:46.555Z,69.59
2019-06-27T04:55:18.720Z,67.83
2019-06-27T04:57:50.761Z,66.39
2019-06-27T05:00:30.120Z,67.12
2019-06-27T05:03:01.437Z,67.95
2019-06-27T05:05:35.104Z,68.56
2019-06-27T05:08:07.212Z,68.83
2019-06-27T05:10:39.287Z,68.44
2019-06-27T05:13:11.387Z,68.84
2019-06-27T05:19:38.007Z,68.08
2019-06-27T05:22:09.271Z,67.21
2019-06-27T05:24:41.338Z,66.81
2019-06-27T05:27:13.472Z,66.73
2019-06-27T05:29:45.459Z,66.12
2019-06-27T05:32:16.759Z,66.27
2019-06-27T05:34:48.646Z,66.22
2019-06-27T05:37:19.838Z,66.12
2019-06-27T05:39:55.014Z,65.74
2019-06-27T05:42:28.194Z,64.86
2019-06-27T05:45:00.222Z,64.49
2019-06-27T05:47:32.246Z,63.71
2019-06-27T05:50:04.200Z,62.73
2019-06-27T05:52:36.159Z,61.51
2019-06-27T05:55:08.554Z,61.39
2019-06-27T05:57:40.539Z,61.46
2019-06-27T06:00:27.681Z,61.42
2019-06-27T06:02:46.328Z,61.67
2019-06-27T06:05:18.414Z,60.79
2019-06-27T06:07:50.405Z,60.05
2019-06-27T06:10:22.937Z,59.70
2019-06-27T06:12:59.418Z,60.73
2019-06-27T06:15:30.881Z,61.53
2019-06-27T06:18:03.430Z,61.95
2019-06-27T06:20:35.003Z,62.74
2019-06-27T06:23:08.770Z,63.62
2019-06-27T06:25:41.618Z,63.85
2019-06-27T06:28:12.954Z,64.14
2019-06-27T06:30:48.530Z,63.42
2019-06-27T06:33:23.943Z,62.99
2019-06-27T06:35:55.195Z,62.98
2019-06-27T06:38:36.475Z,62.31
2019-06-27T06:41:14.027Z,62.67
2019-06-27T06:43:45.697Z,63.79
2019-06-27T06:46:17.602Z,63.56
2019-06-27T06:48:48.845Z,63.49
2019-06-27T06:51:21.505Z,62.52
2019-06-27T06:53:53.742Z,61.78
2019-06-27T06:56:25.613Z,62.70
2019-06-27T06:58:57.469Z,62.41
2019-06-27T07:01:29.439Z,62.53
2019-06-27T07:04:01.404Z,62.56
2019-06-27T07:06:33.326Z,62.37
2019-06-27T07:09:06.149Z,61.65
2019-06-27T07:11:38.097Z,60.13
2019-06-27T07:14:09.998Z,59.36
2019-06-27T07:16:41.920Z,59.48
2019-06-27T07:19:14.701Z,57.28
2019-06-27T07:21:46.652Z,57.07
2019-06-27T07:24:17.954Z,57.05
2019-06-27T07:26:49.761Z,57.72
2019-06-27T07:29:21.777Z,59.02
2019-06-27T07:31:53.802Z,58.69
2019-06-27T07:34:25.832Z,58.87
2019-06-27T07:36:57.162Z,59.12
2019-06-27T07:39:28.339Z,57.60
2019-06-27T07:42:00.288Z,57.14
2019-06-27T07:44:32.416Z,58.48
2019-06-27T07:47:04.287Z,58.41
2019-06-27T07:49:36.153Z,57.13
2019-06-27T07:52:08.053Z,57.73
2019-06-27T07:54:39.243Z,56.44
2019-06-27T07:57:11.046Z,56.05
2019-06-27T07:59:42.895Z,53.24
2019-06-27T08:02:16.367Z,52.25
2019-06-27T08:04:48.311Z,52.58
2019-06-27T08:07:21.313Z,47.29
2019-06-27T08:09:53.401Z,46.22
2019-06-27T08:12:24.748Z,46.52
2019-06-27T08:14:56.652Z,46.65
2019-06-27T08:17:27.865Z,45.54
2019-06-27T08:19:59.667Z,45.51
2019-06-27T08:22:31.545Z,45.96
2019-06-27T08:25:02.976Z,47.08
2019-06-27T08:27:34.776Z,43.22
2019-06-27T08:30:08.686Z,42.73
2019-06-27T08:32:40.897Z,43.38
2019-06-27T08:35:12.005Z,42.24
2019-06-27T08:37:43.248Z,41.71
2019-06-27T08:40:15.665Z,40.56
2019-06-27T08:42:47.596Z,39.61
2019-06-27T08:45:19.754Z,40.80
2019-06-27T08:47:51.734Z,40.42
2019-06-27T08:50:23.580Z,41.38
2019-06-27T08:52:55.480Z,40.18
2019-06-27T08:55:28.520Z,38.67
2019-06-27T08:58:00.449Z,39.65
2019-06-27T09:00:32.400Z,40.86
2019-06-27T09:03:04.340Z,41.63
2019-06-27T09:05:35.628Z,42.29
2019-06-27T09:08:07.544Z,40.38
2019-06-27T09:10:38.777Z,40.40
2019-06-27T09:13:09.960Z,40.42
2019-06-27T09:15:41.117Z,40.38
2019-06-27T09:18:12.896Z,42.11
2019-06-27T09:20:49.190Z,41.79
2019-06-27T09:23:22.852Z,40.98
2019-06-27T09:25:54.192Z,37.62
2019-06-27T09:28:25.568Z,36.88
2019-06-27T09:31:00.774Z,34.73
2019-06-27T09:33:33.313Z,35.70
2019-06-27T09:36:11.924Z,36.63
2019-06-27T09:38:44.756Z,33.77
2019-06-27T09:41:16.010Z,33.62
2019-06-27T09:43:47.168Z,31.57
2019-06-27T09:46:20.388Z,31.96
2019-06-27T09:48:53.236Z,34.76
2019-06-27T09:51:26.665Z,34.61
2019-06-27T09:54:00.540Z,33.96
2019-06-27T09:56:31.829Z,33.36
2019-06-27T09:59:05.981Z,34.38
2019-06-27T10:01:37.488Z,36.48
2019-06-27T10:04:08.677Z,35.30
2019-06-27T10:06:41.948Z,32.85
2019-06-27T10:09:13.250Z,36.01
2019-06-27T10:11:44.601Z,36.68
2019-06-27T10:14:15.916Z,36.92
2019-06-27T10:16:47.873Z,34.73
2019-06-27T10:19:20.178Z,33.18
2019-06-27T10:21:55.840Z,31.99
2019-06-27T10:24:30.183Z,33.43
2019-06-27T10:27:04.055Z,30.80
2019-06-27T10:29:35.425Z,32.46
2019-06-27T10:32:06.793Z,33.43
2019-06-27T10:34:39.066Z,33.25
2019-06-27T10:37:10.497Z,32.92
2019-06-27T10:39:41.822Z,30.75
2019-06-27T10:42:13.117Z,31.10
2019-06-27T10:44:45.356Z,29.26
2019-06-27T10:47:33.574Z,27.78
2019-06-27T10:50:08.142Z,26.40
2019-06-27T10:52:40.800Z,27.43
2019-06-27T10:55:12.060Z,25.89
2019-06-27T10:57:43.352Z,27.65
2019-06-27T11:00:17.025Z,27.81
2019-06-27T11:02:48.372Z,28.38
2019-06-27T11:05:19.487Z,28.51
2019-06-27T11:07:51.331Z,28.35
2019-06-27T11:10:22.651Z,29.10
2019-06-27T11:12:54.039Z,28.16
2019-06-27T11:15:26.748Z,28.05
2019-06-27T11:18:00.432Z,29.20
2019-06-27T11:20:32.473Z,30.08
2019-06-27T11:23:03.828Z,28.65
2019-06-27T11:25:40.371Z,27.95
2019-06-27T11:28:11.872Z,28.55
2019-06-27T11:30:43.857Z,28.54
2019-06-27T11:33:31.252Z,27.97
2019-06-27T11:35:51.192Z,28.23
2019-06-27T11:38:22.483Z,27.37
2019-06-27T11:40:53.652Z,26.18
2019-06-27T11:43:24.806Z,25.57
2019-06-27T11:45:56.012Z,27.52
2019-06-27T11:48:27.178Z,27.69
2019-06-27T11:50:58.440Z,28.49
2019-06-27T11:53:30.251Z,26.67
2019-06-27T11:56:02.252Z,28.45
2019-06-27T11:58:34.364Z,28.72
2019-06-27T12:01:06.366Z,27.86
2019-06-27T12:03:48.854Z,28.55
2019-06-27T12:06:11.975Z,29.06
2019-06-27T12:08:43.227Z,28.52
2019-06-27T12:11:14.479Z,29.00
2019-06-27T12:13:46.307Z,29.29
2019-06-27T12:16:18.359Z,29.10
2019-06-27T12:18:49.607Z,28.28
2019-06-27T12:21:20.743Z,28.31
2019-06-27T12:23:53.687Z,28.81
2019-06-27T12:26:24.883Z,27.87
2019-06-27T12:28:56.744Z,28.11
2019-06-27T12:31:27.952Z,28.56
2019-06-27T12:34:06.728Z,28.56
2019-06-27T12:36:32.767Z,28.38
2019-06-27T12:39:04.335Z,27.88
2019-06-27T12:41:35.943Z,28.21
2019-06-27T12:44:07.736Z,27.80
2019-06-27T12:46:38.935Z,28.31
2019-06-27T12:49:10.183Z,28.21
2019-06-27T12:51:42.178Z,28.36
2019-06-27T12:54:14.156Z,27.72
2019-06-27T12:56:46.019Z,27.97
2019-06-27T12:59:17.939Z,28.29
2019-06-27T13:01:50.002Z,29.12
2019-06-27T13:04:24.147Z,30.14
2019-06-27T13:06:55.839Z,29.84
2019-06-27T13:09:27.738Z,29.73
2019-06-27T13:11:59.717Z,30.69
2019-06-27T13:14:31.690Z,30.64
2019-06-27T13:17:03.535Z,28.84
2019-06-27T13:19:34.803Z,28.01
2019-06-27T13:22:06.702Z,27.90
2019-06-27T13:24:38.633Z,28.49
2019-06-27T13:27:10.567Z,28.64
2019-06-27T13:29:42.590Z,28.81
2019-06-27T13:32:14.602Z,28.60
2019-06-27T13:34:46.496Z,28.74
2019-06-27T13:37:21.075Z,28.77
2019-06-27T13:40:34.288Z,28.40
2019-06-27T13:47:26.430Z,29.18
2019-06-27T13:50:00.500Z,28.91
2019-06-27T13:52:33.074Z,27.95
2019-06-27T13:55:04.676Z,27.92
2019-06-27T13:57:37.618Z,28.12
2019-06-27T14:00:19.999Z,28.67
2019-06-27T14:02:52.002Z,28.52
2019-06-27T14:05:23.840Z,28.07
2019-06-27T14:07:55.704Z,28.36
2019-06-27T14:10:27.551Z,28.45
2019-06-27T14:12:59.528Z,28.57
2019-06-27T14:15:31.475Z,27.88
2019-06-27T14:18:03.592Z,27.89
2019-06-27T14:20:35.627Z,27.54
2019-06-27T14:23:07.601Z,27.74
2019-06-27T14:25:38.954Z,28.16
2019-06-27T14:28:10.185Z,27.87
2019-06-27T14:30:42.102Z,28.06
2019-06-27T14:34:34.102Z,28.40
2019-06-27T15:06:46.275Z,28.32
2019-06-27T15:09:35.226Z,28.41
2019-06-27T15:12:06.418Z,28.34
2019-06-27T15:14:43.651Z,28.73
2019-06-27T15:17:14.799Z,28.47
2019-06-27T15:19:59.414Z,28.74
2019-06-27T15:22:29.499Z,28.61
2019-06-27T15:25:00.683Z,28.04
2019-06-27T15:27:32.482Z,28.54
2019-06-27T15:30:03.822Z,28.66
2019-06-27T15:32:35.826Z,28.79
2019-06-27T15:35:08.178Z,29.08
2019-06-27T15:37:39.529Z,29.69
2019-06-27T15:40:14.347Z,29.41
2019-06-27T15:42:46.362Z,29.47
2019-06-27T15:45:18.047Z,28.75
2019-06-27T15:47:49.193Z,29.16
2019-06-27T15:50:21.195Z,29.56
2019-06-27T15:52:53.144Z,29.10
2019-06-27T15:55:25.126Z,29.45
2019-06-27T15:57:56.436Z,28.33
2019-06-27T16:00:28.472Z,27.38
2019-06-27T16:03:00.506Z,27.76
2019-06-27T16:05:32.172Z,27.51
2019-06-27T16:08:04.135Z,28.04
2019-06-27T16:10:35.398Z,28.00
2019-06-27T16:13:06.735Z,28.29
2019-06-27T16:15:38.665Z,28.30
2019-06-27T16:18:11.065Z,27.95
2019-06-27T16:20:43.051Z,28.13
2019-06-27T16:23:14.946Z,28.29
2019-06-27T16:25:50.107Z,28.13
2019-06-27T16:28:21.317Z,28.31
2019-06-27T16:30:53.125Z,28.18
2019-06-27T16:33:25.013Z,28.12
2019-06-27T16:35:56.933Z,28.10
2019-06-27T16:38:28.182Z,27.86
2019-06-27T16:41:00.223Z,28.23
2019-06-27T16:43:31.621Z,27.98
2019-06-27T16:46:03.633Z,28.09
2019-06-27T16:48:35.724Z,28.23
2019-06-27T16:51:07.905Z,28.34
2019-06-27T16:53:39.217Z,27.67
2019-06-27T16:56:11.196Z,27.86
2019-06-27T16:58:43.145Z,27.67
2019-06-27T17:01:14.689Z,28.03
2019-06-27T17:03:46.573Z,28.07
2019-06-27T17:06:17.930Z,27.96
2019-06-27T17:08:51.349Z,27.84
2019-06-27T17:11:23.333Z,27.79
2019-06-27T17:13:55.250Z,27.76
2019-06-27T17:16:27.288Z,27.49
2019-06-27T17:18:59.206Z,27.70
2019-06-27T17:21:34.737Z,27.90
2019-06-27T17:24:06.765Z,27.76
2019-06-27T17:26:38.068Z,27.74
2019-06-27T17:29:12.908Z,27.01
2019-06-27T17:31:44.873Z,26.92
2019-06-27T17:34:18.500Z,27.77
2019-06-27T17:36:57.388Z,27.53
2019-06-27T17:39:24.468Z,27.50
2019-06-27T17:41:56.600Z,27.06
2019-06-27T17:44:30.169Z,27.22
2019-06-27T17:47:02.215Z,27.52
2019-06-27T17:49:34.237Z,27.50
2019-06-27T17:52:06.176Z,27.09
2019-06-27T17:54:38.164Z,26.98
2019-06-27T17:57:10.048Z,26.85
2019-06-27T17:59:42.167Z,26.68
2019-06-27T18:02:14.109Z,26.19
2019-06-27T18:04:45.400Z,26.77
2019-06-27T18:07:17.247Z,27.20
2019-06-27T18:09:49.170Z,27.15
2019-06-27T18:12:21.166Z,29.03
2019-06-27T18:14:54.314Z,28.18
2019-06-27T18:17:33.631Z,28.62
2019-06-27T18:19:59.343Z,29.33
2019-06-27T18:22:31.337Z,29.32
2019-06-27T18:25:03.373Z,29.68
2019-06-27T18:27:35.549Z,29.84
2019-06-27T18:30:09.032Z,30.25
2019-06-27T18:32:41.320Z,30.60
2019-06-27T18:35:16.092Z,30.94
2019-06-27T18:37:47.534Z,31.65
2019-06-27T18:40:19.893Z,31.83
2019-06-27T18:42:51.988Z,32.23
2019-06-27T18:45:23.296Z,32.82
2019-06-27T18:47:54.597Z,33.10
2019-06-27T18:50:27.881Z,33.53
2019-06-27T18:53:00.136Z,33.82
2019-06-27T18:55:32.363Z,34.21
2019-06-27T18:58:06.355Z,34.32
2019-06-27T19:00:38.227Z,34.62
2019-06-27T19:03:09.599Z,34.91
2019-06-27T19:05:42.603Z,35.25
2019-06-27T19:08:15.971Z,35.65
2019-06-27T19:10:48.082Z,35.88
2019-06-27T19:13:20.223Z,36.37
2019-06-27T19:15:52.407Z,36.48
2019-06-27T19:18:42.404Z,36.71
2019-06-27T19:21:20.267Z,37.02
2019-06-27T19:24:20.525Z,37.37
2019-06-27T19:26:55.719Z,37.67
2019-06-27T19:29:28.403Z,38.14
2019-06-27T19:34:38.648Z,38.78
2019-06-27T19:37:12.836Z,39.14
2019-06-27T19:39:52.772Z,39.51
2019-06-27T19:42:23.323Z,39.74
2019-06-27T19:44:57.782Z,40.13
2019-06-27T19:47:34.165Z,40.46
2019-06-27T19:50:06.235Z,40.96
2019-06-27T19:52:47.196Z,41.25
2019-06-27T19:55:29.996Z,41.48
2019-06-27T19:58:04.207Z,41.91
2019-06-27T20:00:40.064Z,42.52
2019-06-27T20:03:13.019Z,42.69
2019-06-27T20:05:44.296Z,43.18
2019-06-27T20:08:19.499Z,43.69
2019-06-27T20:10:50.176Z,44.11
2019-06-27T20:13:22.039Z,44.50
2019-06-27T20:15:53.232Z,44.87
2019-06-27T20:18:24.455Z,45.11
2019-06-27T20:20:55.655Z,45.39
2019-06-27T20:23:27.617Z,45.73
2019-06-27T20:25:59.539Z,46.03
2019-06-27T20:28:31.659Z,46.15
2019-06-27T20:31:02.965Z,46.47
2019-06-27T20:33:35.003Z,46.60
2019-06-27T20:36:06.995Z,46.81
2019-06-27T20:38:39.219Z,46.88
2019-06-27T20:41:10.523Z,47.06
2019-06-27T20:43:42.395Z,47.30
2019-06-27T20:46:14.352Z,47.43
2019-06-27T20:48:47.327Z,47.86
2019-06-27T20:51:19.559Z,48.10
2019-06-27T20:53:51.074Z,48.41
2019-06-27T20:56:23.279Z,48.86
2019-06-27T20:58:55.521Z,49.23
2019-06-27T21:01:31.631Z,49.34
2019-06-27T21:04:03.639Z,49.67
2019-06-27T21:06:35.003Z,50.12
2019-06-27T21:09:06.453Z,50.43
2019-06-27T21:11:37.657Z,50.89
2019-06-27T21:14:09.559Z,51.29
2019-06-27T21:16:41.506Z,51.50
2019-06-27T21:19:13.451Z,51.66
2019-06-27T21:21:45.416Z,52.03
2019-06-27T21:24:16.684Z,52.16
2019-06-27T21:26:48.136Z,52.58
2019-06-27T21:29:19.962Z,52.79
2019-06-27T21:31:51.286Z,53.01
2019-06-27T21:34:23.184Z,53.22
2019-06-27T21:36:54.582Z,53.47
2019-06-27T21:39:25.800Z,53.80
2019-06-27T21:41:57.694Z,53.99
2019-06-27T21:44:29.644Z,54.35
2019-06-27T21:47:00.955Z,54.82
2019-06-27T21:49:32.858Z,55.11
2019-06-27T21:52:04.835Z,55.61
2019-06-27T21:54:36.716Z,56.32
2019-06-27T21:57:09.731Z,56.53
2019-06-27T21:59:41.867Z,56.45
2019-06-27T22:02:13.894Z,56.36
2019-06-27T22:04:45.897Z,56.36
2019-06-27T22:07:17.892Z,56.59
2019-06-27T22:09:49.221Z,56.57
2019-06-27T22:12:21.082Z,56.66
2019-06-27T22:14:53.159Z,56.74
2019-06-27T22:17:25.164Z,57.28
2019-06-27T22:20:13.717Z,57.86
2019-06-27T22:22:31.123Z,57.89
2019-06-27T22:25:03.179Z,58.47
2019-06-27T22:27:34.670Z,58.67
2019-06-27T22:30:06.878Z,58.58
2019-06-27T22:32:38.896Z,59.05
2019-06-27T22:35:10.623Z,59.01
2019-06-27T22:37:59.650Z,59.48
2019-06-27T22:40:50.451Z,59.85
2019-06-27T22:43:39.670Z,60.40
2019-06-27T22:46:29.178Z,60.58
2019-06-27T22:49:01.206Z,61.06
2019-06-27T22:51:50.801Z,61.01
2019-06-27T22:54:23.958Z,61.22
2019-06-27T22:56:55.782Z,61.32
2019-06-27T22:59:27.116Z,61.48
2019-06-27T23:01:58.301Z,61.50
2019-06-27T23:04:30.310Z,61.73
2019-06-27T23:07:02.247Z,61.59
2019-06-27T23:09:34.183Z,61.65
2019-06-27T23:12:06.031Z,61.71
2019-06-27T23:14:37.882Z,61.97
2019-06-27T23:17:09.808Z,61.94
2019-06-27T23:19:41.792Z,61.92
2019-06-27T23:22:13.658Z,61.93
2019-06-27T23:24:44.895Z,61.97
2019-06-27T23:27:16.076Z,62.08
2019-06-27T23:29:47.836Z,62.00
2019-06-27T23:32:19.059Z,61.86
2019-06-27T23:34:50.235Z,61.74
2019-06-27T23:37:22.062Z,61.65
2019-06-27T23:39:53.405Z,61.65
2019-06-27T23:42:25.214Z,61.68
2019-06-27T23:44:57.122Z,61.44
2019-06-27T23:47:28.425Z,61.39
2019-06-27T23:50:00.238Z,61.44
2019-06-27T23:52:31.513Z,61.09
2019-06-27T23:55:02.728Z,61.49
2019-06-27T23:57:34.874Z,61.04
